sensor_id;sensor_type;location;lat;lon;timestamp;temperature;humidity
74617;DHT22;63123;50.906;4.198;2023-05-15T00:00:39;17.70;67.00
74617;DHT22;63123;50.906;4.198;2023-05-15T00:03:06;17.70;66.80
74617;DHT22;63123;50.906;4.198;2023-05-15T00:05:31;17.70;66.80
74617;DHT22;63123;50.906;4.198;2023-05-15T00:07:57;17.70;66.80
74617;DHT22;63123;50.906;4.198;2023-05-15T00:10:23;17.70;66.80
74617;DHT22;63123;50.906;4.198;2023-05-15T00:12:48;17.70;66.70
74617;DHT22;63123;50.906;4.198;2023-05-15T00:15:14;17.70;66.70
74617;DHT22;63123;50.906;4.198;2023-05-15T00:17:40;17.70;66.60
74617;DHT22;63123;50.906;4.198;2023-05-15T00:20:06;17.70;66.50
74617;DHT22;63123;50.906;4.198;2023-05-15T00:22:34;17.70;66.60
74617;DHT22;63123;50.906;4.198;2023-05-15T00:24:59;17.70;66.60
74617;DHT22;63123;50.906;4.198;2023-05-15T00:27:25;17.70;66.50
74617;DHT22;63123;50.906;4.198;2023-05-15T00:29:52;17.70;66.70
74617;DHT22;63123;50.906;4.198;2023-05-15T00:32:18;17.70;66.50
74617;DHT22;63123;50.906;4.198;2023-05-15T00:34:43;17.70;66.80
74617;DHT22;63123;50.906;4.198;2023-05-15T00:37:09;17.70;66.60
74617;DHT22;63123;50.906;4.198;2023-05-15T00:39:35;17.70;66.70
74617;DHT22;63123;50.906;4.198;2023-05-15T00:42:02;17.70;66.60
74617;DHT22;63123;50.906;4.198;2023-05-15T00:44:30;17.70;66.80
74617;DHT22;63123;50.906;4.198;2023-05-15T00:46:57;17.70;66.80
74617;DHT22;63123;50.906;4.198;2023-05-15T00:49:23;17.70;66.70
74617;DHT22;63123;50.906;4.198;2023-05-15T00:51:52;17.70;66.80
74617;DHT22;63123;50.906;4.198;2023-05-15T00:54:18;17.70;66.60
74617;DHT22;63123;50.906;4.198;2023-05-15T00:56:45;17.70;66.60
74617;DHT22;63123;50.906;4.198;2023-05-15T00:59:12;17.70;66.50
74617;DHT22;63123;50.906;4.198;2023-05-15T01:01:38;17.70;66.50
74617;DHT22;63123;50.906;4.198;2023-05-15T01:04:04;17.70;66.50
74617;DHT22;63123;50.906;4.198;2023-05-15T01:06:30;17.70;66.50
74617;DHT22;63123;50.906;4.198;2023-05-15T01:08:58;17.70;66.50
74617;DHT22;63123;50.906;4.198;2023-05-15T01:11:27;17.70;66.50
74617;DHT22;63123;50.906;4.198;2023-05-15T01:14:04;17.70;66.40
74617;DHT22;63123;50.906;4.198;2023-05-15T01:16:31;17.70;66.40
74617;DHT22;63123;50.906;4.198;2023-05-15T01:18:57;17.70;66.40
74617;DHT22;63123;50.906;4.198;2023-05-15T01:24:03;17.70;66.40
74617;DHT22;63123;50.906;4.198;2023-05-15T01:29:22;17.70;66.40
74617;DHT22;63123;50.906;4.198;2023-05-15T01:31:56;17.70;66.30
74617;DHT22;63123;50.906;4.198;2023-05-15T01:34:28;17.70;66.30
74617;DHT22;63123;50.906;4.198;2023-05-15T01:36:59;17.60;66.50
74617;DHT22;63123;50.906;4.198;2023-05-15T01:39:27;17.70;66.40
74617;DHT22;63123;50.906;4.198;2023-05-15T01:42:06;17.70;66.30
74617;DHT22;63123;50.906;4.198;2023-05-15T01:44:37;17.60;66.30
74617;DHT22;63123;50.906;4.198;2023-05-15T01:47:13;17.70;66.40
74617;DHT22;63123;50.906;4.198;2023-05-15T01:49:41;17.70;66.40
74617;DHT22;63123;50.906;4.198;2023-05-15T01:52:15;17.70;66.40
74617;DHT22;63123;50.906;4.198;2023-05-15T01:54:41;17.70;66.30
74617;DHT22;63123;50.906;4.198;2023-05-15T01:57:08;17.70;66.30
74617;DHT22;63123;50.906;4.198;2023-05-15T01:59:35;17.70;66.40
74617;DHT22;63123;50.906;4.198;2023-05-15T02:02:03;17.70;66.30
74617;DHT22;63123;50.906;4.198;2023-05-15T02:04:30;17.60;66.20
74617;DHT22;63123;50.906;4.198;2023-05-15T02:06:57;17.70;66.20
74617;DHT22;63123;50.906;4.198;2023-05-15T02:09:24;17.70;66.10
74617;DHT22;63123;50.906;4.198;2023-05-15T02:11:50;17.60;66.10
74617;DHT22;63123;50.906;4.198;2023-05-15T02:14:16;17.70;66.10
74617;DHT22;63123;50.906;4.198;2023-05-15T02:16:42;17.70;66.10
74617;DHT22;63123;50.906;4.198;2023-05-15T02:19:08;17.70;66.30
74617;DHT22;63123;50.906;4.198;2023-05-15T02:21:34;17.60;66.10
74617;DHT22;63123;50.906;4.198;2023-05-15T02:24:00;17.60;66.00
74617;DHT22;63123;50.906;4.198;2023-05-15T02:29:19;17.70;66.10
74617;DHT22;63123;50.906;4.198;2023-05-15T02:32:08;17.70;66.10
74617;DHT22;63123;50.906;4.198;2023-05-15T02:37:13;17.70;66.10
74617;DHT22;63123;50.906;4.198;2023-05-15T02:39:41;17.70;66.10
74617;DHT22;63123;50.906;4.198;2023-05-15T02:42:09;17.60;66.30
74617;DHT22;63123;50.906;4.198;2023-05-15T02:44:36;17.70;66.10
74617;DHT22;63123;50.906;4.198;2023-05-15T02:47:03;17.70;66.10
74617;DHT22;63123;50.906;4.198;2023-05-15T02:49:29;17.70;66.10
74617;DHT22;63123;50.906;4.198;2023-05-15T02:51:55;17.60;65.90
74617;DHT22;63123;50.906;4.198;2023-05-15T02:54:21;17.70;65.90
74617;DHT22;63123;50.906;4.198;2023-05-15T02:56:46;17.60;65.90
74617;DHT22;63123;50.906;4.198;2023-05-15T02:59:12;17.70;66.00
74617;DHT22;63123;50.906;4.198;2023-05-15T03:01:43;17.70;66.10
74617;DHT22;63123;50.906;4.198;2023-05-15T03:04:09;17.70;66.10
74617;DHT22;63123;50.906;4.198;2023-05-15T03:06:34;17.70;66.10
74617;DHT22;63123;50.906;4.198;2023-05-15T03:09:00;17.70;66.10
74617;DHT22;63123;50.906;4.198;2023-05-15T03:11:26;17.70;66.10
74617;DHT22;63123;50.906;4.198;2023-05-15T03:13:51;17.60;66.10
74617;DHT22;63123;50.906;4.198;2023-05-15T03:16:17;17.70;66.00
74617;DHT22;63123;50.906;4.198;2023-05-15T03:18:42;17.70;66.10
74617;DHT22;63123;50.906;4.198;2023-05-15T03:21:08;17.70;66.20
74617;DHT22;63123;50.906;4.198;2023-05-15T03:23:34;17.60;66.10
74617;DHT22;63123;50.906;4.198;2023-05-15T03:25:59;17.60;66.20
74617;DHT22;63123;50.906;4.198;2023-05-15T03:28:25;17.60;66.10
74617;DHT22;63123;50.906;4.198;2023-05-15T03:30:50;17.60;66.40
74617;DHT22;63123;50.906;4.198;2023-05-15T03:33:16;17.70;66.40
74617;DHT22;63123;50.906;4.198;2023-05-15T03:35:41;17.70;66.30
74617;DHT22;63123;50.906;4.198;2023-05-15T03:38:09;17.70;66.30
74617;DHT22;63123;50.906;4.198;2023-05-15T03:40:36;17.70;66.30
74617;DHT22;63123;50.906;4.198;2023-05-15T03:43:02;17.60;66.20
74617;DHT22;63123;50.906;4.198;2023-05-15T03:45:27;17.60;66.10
74617;DHT22;63123;50.906;4.198;2023-05-15T03:47:53;17.60;66.10
74617;DHT22;63123;50.906;4.198;2023-05-15T03:50:19;17.70;66.30
74617;DHT22;63123;50.906;4.198;2023-05-15T03:52:44;17.60;66.10
74617;DHT22;63123;50.906;4.198;2023-05-15T03:55:10;17.60;66.10
74617;DHT22;63123;50.906;4.198;2023-05-15T03:57:36;17.70;66.20
74617;DHT22;63123;50.906;4.198;2023-05-15T04:00:02;17.70;66.20
74617;DHT22;63123;50.906;4.198;2023-05-15T04:02:34;17.70;66.10
74617;DHT22;63123;50.906;4.198;2023-05-15T04:04:59;17.70;66.20
74617;DHT22;63123;50.906;4.198;2023-05-15T04:07:26;17.70;66.30
74617;DHT22;63123;50.906;4.198;2023-05-15T04:09:51;17.60;66.10
74617;DHT22;63123;50.906;4.198;2023-05-15T04:12:17;17.70;66.20
74617;DHT22;63123;50.906;4.198;2023-05-15T04:14:42;17.70;66.20
74617;DHT22;63123;50.906;4.198;2023-05-15T04:17:08;17.70;66.20
74617;DHT22;63123;50.906;4.198;2023-05-15T04:19:33;17.70;66.20
74617;DHT22;63123;50.906;4.198;2023-05-15T04:21:59;17.70;66.00
74617;DHT22;63123;50.906;4.198;2023-05-15T04:24:25;17.70;66.10
74617;DHT22;63123;50.906;4.198;2023-05-15T04:26:50;17.60;66.10
74617;DHT22;63123;50.906;4.198;2023-05-15T04:29:16;17.70;66.20
74617;DHT22;63123;50.906;4.198;2023-05-15T04:31:42;17.60;66.00
74617;DHT22;63123;50.906;4.198;2023-05-15T04:34:07;17.70;66.20
74617;DHT22;63123;50.906;4.198;2023-05-15T04:36:33;17.70;66.00
74617;DHT22;63123;50.906;4.198;2023-05-15T04:38:59;17.70;66.10
74617;DHT22;63123;50.906;4.198;2023-05-15T04:41:25;17.70;66.00
74617;DHT22;63123;50.906;4.198;2023-05-15T04:43:51;17.60;66.10
74617;DHT22;63123;50.906;4.198;2023-05-15T04:46:16;17.70;66.00
74617;DHT22;63123;50.906;4.198;2023-05-15T04:48:42;17.70;66.00
74617;DHT22;63123;50.906;4.198;2023-05-15T04:51:08;17.70;66.10
74617;DHT22;63123;50.906;4.198;2023-05-15T04:53:33;17.70;66.10
74617;DHT22;63123;50.906;4.198;2023-05-15T04:55:59;17.60;66.20
74617;DHT22;63123;50.906;4.198;2023-05-15T04:58:25;17.70;66.10
74617;DHT22;63123;50.906;4.198;2023-05-15T05:00:50;17.70;66.30
74617;DHT22;63123;50.906;4.198;2023-05-15T05:03:16;17.60;66.10
74617;DHT22;63123;50.906;4.198;2023-05-15T05:05:41;17.60;66.00
74617;DHT22;63123;50.906;4.198;2023-05-15T05:08:07;17.70;66.20
74617;DHT22;63123;50.906;4.198;2023-05-15T05:10:33;17.70;65.90
74617;DHT22;63123;50.906;4.198;2023-05-15T05:12:58;17.60;66.00
74617;DHT22;63123;50.906;4.198;2023-05-15T05:15:24;17.70;66.10
74617;DHT22;63123;50.906;4.198;2023-05-15T05:17:49;17.70;66.10
74617;DHT22;63123;50.906;4.198;2023-05-15T05:20:15;17.70;66.00
74617;DHT22;63123;50.906;4.198;2023-05-15T05:22:41;17.70;66.70
74617;DHT22;63123;50.906;4.198;2023-05-15T05:25:07;17.70;66.00
74617;DHT22;63123;50.906;4.198;2023-05-15T05:27:33;17.70;66.20
74617;DHT22;63123;50.906;4.198;2023-05-15T05:29:58;17.60;66.20
74617;DHT22;63123;50.906;4.198;2023-05-15T05:32:25;17.70;66.10
74617;DHT22;63123;50.906;4.198;2023-05-15T05:34:50;17.70;66.40
74617;DHT22;63123;50.906;4.198;2023-05-15T05:37:16;17.70;66.40
74617;DHT22;63123;50.906;4.198;2023-05-15T05:39:41;17.70;67.00
74617;DHT22;63123;50.906;4.198;2023-05-15T05:42:07;17.70;66.40
74617;DHT22;63123;50.906;4.198;2023-05-15T05:44:33;17.70;66.50
74617;DHT22;63123;50.906;4.198;2023-05-15T05:46:59;17.70;66.30
74617;DHT22;63123;50.906;4.198;2023-05-15T05:49:24;17.70;66.40
74617;DHT22;63123;50.906;4.198;2023-05-15T05:51:50;17.70;66.50
74617;DHT22;63123;50.906;4.198;2023-05-15T05:54:15;17.70;66.50
74617;DHT22;63123;50.906;4.198;2023-05-15T05:56:42;17.70;66.60
74617;DHT22;63123;50.906;4.198;2023-05-15T05:59:08;17.70;66.50
74617;DHT22;63123;50.906;4.198;2023-05-15T06:01:34;17.70;66.40
74617;DHT22;63123;50.906;4.198;2023-05-15T06:04:00;17.70;66.20
74617;DHT22;63123;50.906;4.198;2023-05-15T06:06:26;17.70;66.30
74617;DHT22;63123;50.906;4.198;2023-05-15T06:08:51;17.70;66.40
74617;DHT22;63123;50.906;4.198;2023-05-15T06:11:17;17.70;66.20
74617;DHT22;63123;50.906;4.198;2023-05-15T06:13:42;17.70;66.20
74617;DHT22;63123;50.906;4.198;2023-05-15T06:16:08;17.70;66.10
74617;DHT22;63123;50.906;4.198;2023-05-15T06:18:34;17.70;66.30
74617;DHT22;63123;50.906;4.198;2023-05-15T06:20:59;17.70;66.10
74617;DHT22;63123;50.906;4.198;2023-05-15T06:23:25;17.70;66.10
74617;DHT22;63123;50.906;4.198;2023-05-15T06:25:51;17.70;66.10
74617;DHT22;63123;50.906;4.198;2023-05-15T06:28:17;17.70;66.00
74617;DHT22;63123;50.906;4.198;2023-05-15T06:30:42;17.70;66.00
74617;DHT22;63123;50.906;4.198;2023-05-15T06:33:08;17.70;66.00
74617;DHT22;63123;50.906;4.198;2023-05-15T06:35:34;17.70;66.10
74617;DHT22;63123;50.906;4.198;2023-05-15T06:38:00;17.70;66.00
74617;DHT22;63123;50.906;4.198;2023-05-15T06:40:26;17.70;66.10
74617;DHT22;63123;50.906;4.198;2023-05-15T06:42:52;17.70;66.10
74617;DHT22;63123;50.906;4.198;2023-05-15T06:45:17;17.70;66.20
74617;DHT22;63123;50.906;4.198;2023-05-15T06:47:43;17.70;66.00
74617;DHT22;63123;50.906;4.198;2023-05-15T06:50:09;17.70;66.00
74617;DHT22;63123;50.906;4.198;2023-05-15T06:52:35;17.70;65.80
74617;DHT22;63123;50.906;4.198;2023-05-15T06:55:00;17.70;65.80
74617;DHT22;63123;50.906;4.198;2023-05-15T06:57:26;17.70;65.90
74617;DHT22;63123;50.906;4.198;2023-05-15T06:59:52;17.70;65.90
74617;DHT22;63123;50.906;4.198;2023-05-15T07:02:17;17.70;66.00
74617;DHT22;63123;50.906;4.198;2023-05-15T07:04:43;17.70;66.00
74617;DHT22;63123;50.906;4.198;2023-05-15T07:07:09;17.70;65.90
74617;DHT22;63123;50.906;4.198;2023-05-15T07:09:34;17.70;65.90
74617;DHT22;63123;50.906;4.198;2023-05-15T07:12:00;17.70;65.90
74617;DHT22;63123;50.906;4.198;2023-05-15T07:14:26;17.70;65.90
74617;DHT22;63123;50.906;4.198;2023-05-15T07:16:51;17.70;66.00
74617;DHT22;63123;50.906;4.198;2023-05-15T07:19:17;17.70;65.70
74617;DHT22;63123;50.906;4.198;2023-05-15T07:21:46;17.70;65.70
74617;DHT22;63123;50.906;4.198;2023-05-15T07:24:12;17.70;65.70
74617;DHT22;63123;50.906;4.198;2023-05-15T07:26:37;17.70;65.60
74617;DHT22;63123;50.906;4.198;2023-05-15T07:29:03;17.70;65.70
74617;DHT22;63123;50.906;4.198;2023-05-15T07:31:29;17.70;65.50
74617;DHT22;63123;50.906;4.198;2023-05-15T07:33:55;17.70;65.70
74617;DHT22;63123;50.906;4.198;2023-05-15T07:36:21;17.70;65.80
74617;DHT22;63123;50.906;4.198;2023-05-15T07:38:47;17.70;65.50
74617;DHT22;63123;50.906;4.198;2023-05-15T07:41:12;17.70;65.60
74617;DHT22;63123;50.906;4.198;2023-05-15T07:43:38;17.70;66.00
74617;DHT22;63123;50.906;4.198;2023-05-15T07:46:03;17.70;65.50
74617;DHT22;63123;50.906;4.198;2023-05-15T07:48:29;17.80;65.90
74617;DHT22;63123;50.906;4.198;2023-05-15T07:50:55;17.80;65.70
74617;DHT22;63123;50.906;4.198;2023-05-15T07:53:21;17.70;65.80
74617;DHT22;63123;50.906;4.198;2023-05-15T07:55:47;17.70;65.40
74617;DHT22;63123;50.906;4.198;2023-05-15T07:58:13;17.70;65.60
74617;DHT22;63123;50.906;4.198;2023-05-15T08:00:39;17.70;65.70
74617;DHT22;63123;50.906;4.198;2023-05-15T08:03:05;17.70;65.60
74617;DHT22;63123;50.906;4.198;2023-05-15T08:05:30;17.70;65.80
74617;DHT22;63123;50.906;4.198;2023-05-15T08:07:56;17.80;65.90
74617;DHT22;63123;50.906;4.198;2023-05-15T08:10:22;17.80;65.60
74617;DHT22;63123;50.906;4.198;2023-05-15T08:12:48;17.70;65.70
74617;DHT22;63123;50.906;4.198;2023-05-15T08:15:15;17.70;65.70
74617;DHT22;63123;50.906;4.198;2023-05-15T08:17:41;17.80;65.70
74617;DHT22;63123;50.906;4.198;2023-05-15T08:20:07;17.70;65.70
74617;DHT22;63123;50.906;4.198;2023-05-15T08:22:33;17.80;65.60
74617;DHT22;63123;50.906;4.198;2023-05-15T08:24:59;17.70;65.40
74617;DHT22;63123;50.906;4.198;2023-05-15T08:27:25;17.70;65.40
74617;DHT22;63123;50.906;4.198;2023-05-15T08:29:51;17.80;65.40
74617;DHT22;63123;50.906;4.198;2023-05-15T08:32:17;17.70;65.30
74617;DHT22;63123;50.906;4.198;2023-05-15T08:34:43;17.80;65.40
74617;DHT22;63123;50.906;4.198;2023-05-15T08:37:09;17.80;65.40
74617;DHT22;63123;50.906;4.198;2023-05-15T08:39:34;17.80;65.40
74617;DHT22;63123;50.906;4.198;2023-05-15T08:44:41;17.80;65.10
74617;DHT22;63123;50.906;4.198;2023-05-15T08:47:07;17.80;65.60
74617;DHT22;63123;50.906;4.198;2023-05-15T08:52:25;17.80;65.00
74617;DHT22;63123;50.906;4.198;2023-05-15T08:54:51;17.80;65.30
74617;DHT22;63123;50.906;4.198;2023-05-15T08:57:17;17.80;65.10
74617;DHT22;63123;50.906;4.198;2023-05-15T08:59:43;17.80;65.10
74617;DHT22;63123;50.906;4.198;2023-05-15T09:02:10;17.80;65.30
74617;DHT22;63123;50.906;4.198;2023-05-15T09:04:36;17.80;65.20
74617;DHT22;63123;50.906;4.198;2023-05-15T09:07:02;17.80;65.40
74617;DHT22;63123;50.906;4.198;2023-05-15T09:09:29;17.90;65.30
74617;DHT22;63123;50.906;4.198;2023-05-15T09:11:58;17.80;65.40
74617;DHT22;63123;50.906;4.198;2023-05-15T09:14:24;17.80;65.20
74617;DHT22;63123;50.906;4.198;2023-05-15T09:16:50;17.80;65.20
74617;DHT22;63123;50.906;4.198;2023-05-15T09:19:18;17.80;65.10
74617;DHT22;63123;50.906;4.198;2023-05-15T09:21:45;17.80;65.20
74617;DHT22;63123;50.906;4.198;2023-05-15T09:26:46;17.90;65.20
74617;DHT22;63123;50.906;4.198;2023-05-15T09:29:15;17.90;65.10
74617;DHT22;63123;50.906;4.198;2023-05-15T09:31:42;17.90;65.10
74617;DHT22;63123;50.906;4.198;2023-05-15T09:34:08;17.80;65.10
74617;DHT22;63123;50.906;4.198;2023-05-15T09:36:34;17.90;65.10
74617;DHT22;63123;50.906;4.198;2023-05-15T09:39:01;17.90;65.10
74617;DHT22;63123;50.906;4.198;2023-05-15T09:41:27;17.90;65.00
74617;DHT22;63123;50.906;4.198;2023-05-15T09:43:54;17.80;65.20
74617;DHT22;63123;50.906;4.198;2023-05-15T09:46:22;17.80;65.20
74617;DHT22;63123;50.906;4.198;2023-05-15T09:48:48;17.80;65.30
74617;DHT22;63123;50.906;4.198;2023-05-15T09:51:18;17.80;65.20
74617;DHT22;63123;50.906;4.198;2023-05-15T09:53:51;17.80;65.10
74617;DHT22;63123;50.906;4.198;2023-05-15T09:56:17;17.80;65.30
74617;DHT22;63123;50.906;4.198;2023-05-15T09:58:58;17.90;66.00
74617;DHT22;63123;50.906;4.198;2023-05-15T10:01:25;17.80;65.40
74617;DHT22;63123;50.906;4.198;2023-05-15T10:04:01;17.90;65.40
74617;DHT22;63123;50.906;4.198;2023-05-15T10:06:34;17.80;65.30
74617;DHT22;63123;50.906;4.198;2023-05-15T10:09:01;17.90;65.40
74617;DHT22;63123;50.906;4.198;2023-05-15T10:11:29;17.80;65.40
74617;DHT22;63123;50.906;4.198;2023-05-15T10:13:56;17.90;65.50
74617;DHT22;63123;50.906;4.198;2023-05-15T10:16:23;17.90;65.40
74617;DHT22;63123;50.906;4.198;2023-05-15T10:18:50;17.90;65.40
74617;DHT22;63123;50.906;4.198;2023-05-15T10:21:19;17.90;65.40
74617;DHT22;63123;50.906;4.198;2023-05-15T10:23:46;17.90;65.50
74617;DHT22;63123;50.906;4.198;2023-05-15T10:26:28;17.90;65.40
74617;DHT22;63123;50.906;4.198;2023-05-15T10:28:58;17.90;65.40
74617;DHT22;63123;50.906;4.198;2023-05-15T10:31:25;17.90;65.50
74617;DHT22;63123;50.906;4.198;2023-05-15T10:33:52;17.90;65.60
74617;DHT22;63123;50.906;4.198;2023-05-15T10:36:19;17.90;65.50
74617;DHT22;63123;50.906;4.198;2023-05-15T10:38:46;17.80;65.60
74617;DHT22;63123;50.906;4.198;2023-05-15T10:41:14;17.90;65.60
74617;DHT22;63123;50.906;4.198;2023-05-15T10:43:41;17.90;65.70
74617;DHT22;63123;50.906;4.198;2023-05-15T10:46:07;17.80;65.60
74617;DHT22;63123;50.906;4.198;2023-05-15T10:48:34;17.90;65.70
74617;DHT22;63123;50.906;4.198;2023-05-15T10:51:00;17.80;65.70
74617;DHT22;63123;50.906;4.198;2023-05-15T10:53:26;17.80;65.60
74617;DHT22;63123;50.906;4.198;2023-05-15T10:55:52;17.80;65.70
74617;DHT22;63123;50.906;4.198;2023-05-15T10:58:22;17.90;66.00
74617;DHT22;63123;50.906;4.198;2023-05-15T11:00:48;17.80;65.90
74617;DHT22;63123;50.906;4.198;2023-05-15T11:03:14;17.80;66.50
74617;DHT22;63123;50.906;4.198;2023-05-15T11:08:39;17.80;65.80
74617;DHT22;63123;50.906;4.198;2023-05-15T11:11:06;17.80;65.90
74617;DHT22;63123;50.906;4.198;2023-05-15T11:27:31;17.80;66.00
74617;DHT22;63123;50.906;4.198;2023-05-15T11:30:04;17.80;66.00
74617;DHT22;63123;50.906;4.198;2023-05-15T11:32:31;17.80;66.20
74617;DHT22;63123;50.906;4.198;2023-05-15T11:35:56;17.80;66.10
74617;DHT22;63123;50.906;4.198;2023-05-15T11:37:55;17.80;66.10
74617;DHT22;63123;50.906;4.198;2023-05-15T11:40:26;17.80;66.30
74617;DHT22;63123;50.906;4.198;2023-05-15T11:45:43;17.80;66.30
74617;DHT22;63123;50.906;4.198;2023-05-15T11:48:12;17.80;66.20
74617;DHT22;63123;50.906;4.198;2023-05-15T11:50:40;17.80;66.40
74617;DHT22;63123;50.906;4.198;2023-05-15T11:53:08;17.80;66.30
74617;DHT22;63123;50.906;4.198;2023-05-15T11:55:36;17.80;66.40
74617;DHT22;63123;50.906;4.198;2023-05-15T11:58:02;17.80;66.40
74617;DHT22;63123;50.906;4.198;2023-05-15T12:00:29;17.80;66.40
74617;DHT22;63123;50.906;4.198;2023-05-15T12:02:55;17.80;66.50
74617;DHT22;63123;50.906;4.198;2023-05-15T12:05:21;17.80;66.60
74617;DHT22;63123;50.906;4.198;2023-05-15T12:07:46;17.80;66.50
74617;DHT22;63123;50.906;4.198;2023-05-15T12:10:13;17.80;66.50
74617;DHT22;63123;50.906;4.198;2023-05-15T12:12:40;17.80;66.70
74617;DHT22;63123;50.906;4.198;2023-05-15T12:15:08;17.80;66.70
74617;DHT22;63123;50.906;4.198;2023-05-15T12:17:36;17.80;66.70
74617;DHT22;63123;50.906;4.198;2023-05-15T12:20:02;17.80;66.70
74617;DHT22;63123;50.906;4.198;2023-05-15T12:22:35;17.80;66.90
74617;DHT22;63123;50.906;4.198;2023-05-15T12:25:01;17.80;66.70
74617;DHT22;63123;50.906;4.198;2023-05-15T12:27:27;17.70;66.80
74617;DHT22;63123;50.906;4.198;2023-05-15T12:29:53;17.80;66.80
74617;DHT22;63123;50.906;4.198;2023-05-15T12:32:19;17.80;66.90
74617;DHT22;63123;50.906;4.198;2023-05-15T12:34:45;17.70;66.80
74617;DHT22;63123;50.906;4.198;2023-05-15T12:37:12;17.80;66.90
74617;DHT22;63123;50.906;4.198;2023-05-15T12:39:55;17.80;66.90
74617;DHT22;63123;50.906;4.198;2023-05-15T12:42:21;17.80;66.90
74617;DHT22;63123;50.906;4.198;2023-05-15T12:44:51;17.80;66.90
74617;DHT22;63123;50.906;4.198;2023-05-15T12:47:27;17.80;66.90
74617;DHT22;63123;50.906;4.198;2023-05-15T12:49:56;17.70;66.80
74617;DHT22;63123;50.906;4.198;2023-05-15T12:52:22;17.80;66.90
74617;DHT22;63123;50.906;4.198;2023-05-15T12:54:52;17.80;66.90
74617;DHT22;63123;50.906;4.198;2023-05-15T12:57:17;17.80;66.90
74617;DHT22;63123;50.906;4.198;2023-05-15T12:59:44;17.80;66.90
74617;DHT22;63123;50.906;4.198;2023-05-15T13:02:11;17.80;66.90
74617;DHT22;63123;50.906;4.198;2023-05-15T13:04:37;17.80;66.90
74617;DHT22;63123;50.906;4.198;2023-05-15T13:07:03;17.80;66.90
74617;DHT22;63123;50.906;4.198;2023-05-15T13:09:29;17.80;66.90
74617;DHT22;63123;50.906;4.198;2023-05-15T13:11:55;17.80;66.90
74617;DHT22;63123;50.906;4.198;2023-05-15T13:14:21;17.80;66.90
74617;DHT22;63123;50.906;4.198;2023-05-15T13:16:51;17.80;66.90
74617;DHT22;63123;50.906;4.198;2023-05-15T13:19:17;17.80;66.90
74617;DHT22;63123;50.906;4.198;2023-05-15T13:21:43;17.80;66.90
74617;DHT22;63123;50.906;4.198;2023-05-15T13:24:10;17.80;66.90
74617;DHT22;63123;50.906;4.198;2023-05-15T13:26:35;17.80;66.90
74617;DHT22;63123;50.906;4.198;2023-05-15T13:29:01;17.80;66.90
74617;DHT22;63123;50.906;4.198;2023-05-15T13:31:27;17.80;67.50
74617;DHT22;63123;50.906;4.198;2023-05-15T13:33:52;17.80;66.90
74617;DHT22;63123;50.906;4.198;2023-05-15T13:36:18;17.80;66.80
74617;DHT22;63123;50.906;4.198;2023-05-15T13:38:43;17.80;66.90
74617;DHT22;63123;50.906;4.198;2023-05-15T13:41:09;17.80;66.90
74617;DHT22;63123;50.906;4.198;2023-05-15T13:43:35;17.80;66.90
74617;DHT22;63123;50.906;4.198;2023-05-15T13:46:00;17.80;66.90
74617;DHT22;63123;50.906;4.198;2023-05-15T13:48:26;17.80;66.90
74617;DHT22;63123;50.906;4.198;2023-05-15T13:50:52;17.80;66.70
74617;DHT22;63123;50.906;4.198;2023-05-15T13:53:17;17.80;66.90
74617;DHT22;63123;50.906;4.198;2023-05-15T13:55:44;17.80;66.90
74617;DHT22;63123;50.906;4.198;2023-05-15T13:58:10;17.80;66.90
74617;DHT22;63123;50.906;4.198;2023-05-15T14:00:37;17.80;66.90
74617;DHT22;63123;50.906;4.198;2023-05-15T14:03:02;17.80;66.60
74617;DHT22;63123;50.906;4.198;2023-05-15T14:05:28;17.80;66.60
74617;DHT22;63123;50.906;4.198;2023-05-15T14:07:54;17.80;66.60
74617;DHT22;63123;50.906;4.198;2023-05-15T14:10:21;17.80;66.60
74617;DHT22;63123;50.906;4.198;2023-05-15T14:12:48;17.80;66.50
74617;DHT22;63123;50.906;4.198;2023-05-15T14:15:15;17.90;66.60
74617;DHT22;63123;50.906;4.198;2023-05-15T14:17:40;17.80;66.40
74617;DHT22;63123;50.906;4.198;2023-05-15T14:20:08;17.80;66.60
74617;DHT22;63123;50.906;4.198;2023-05-15T14:22:37;17.80;66.60
74617;DHT22;63123;50.906;4.198;2023-05-15T14:25:03;17.80;66.60
74617;DHT22;63123;50.906;4.198;2023-05-15T14:27:30;17.80;66.70
74617;DHT22;63123;50.906;4.198;2023-05-15T14:29:56;17.80;66.90
74617;DHT22;63123;50.906;4.198;2023-05-15T14:32:22;17.80;66.90
74617;DHT22;63123;50.906;4.198;2023-05-15T14:34:48;17.80;66.60
74617;DHT22;63123;50.906;4.198;2023-05-15T14:37:14;17.80;66.60
74617;DHT22;63123;50.906;4.198;2023-05-15T14:39:40;17.80;66.60
74617;DHT22;63123;50.906;4.198;2023-05-15T14:42:06;17.80;66.60
74617;DHT22;63123;50.906;4.198;2023-05-15T14:44:32;17.80;66.50
74617;DHT22;63123;50.906;4.198;2023-05-15T14:47:09;17.80;66.60
74617;DHT22;63123;50.906;4.198;2023-05-15T14:49:35;17.80;66.60
74617;DHT22;63123;50.906;4.198;2023-05-15T14:52:02;17.70;66.50
74617;DHT22;63123;50.906;4.198;2023-05-15T14:54:28;17.80;66.70
74617;DHT22;63123;50.906;4.198;2023-05-15T14:56:54;17.80;66.50
74617;DHT22;63123;50.906;4.198;2023-05-15T14:59:19;17.80;66.50
74617;DHT22;63123;50.906;4.198;2023-05-15T15:01:45;17.80;66.60
74617;DHT22;63123;50.906;4.198;2023-05-15T15:04:11;17.80;66.70
74617;DHT22;63123;50.906;4.198;2023-05-15T15:06:36;17.80;66.60
74617;DHT22;63123;50.906;4.198;2023-05-15T15:09:02;17.80;66.50
74617;DHT22;63123;50.906;4.198;2023-05-15T15:11:28;17.80;66.60
74617;DHT22;63123;50.906;4.198;2023-05-15T15:13:54;17.80;66.70
74617;DHT22;63123;50.906;4.198;2023-05-15T15:16:19;17.80;66.50
74617;DHT22;63123;50.906;4.198;2023-05-15T15:18:45;17.80;66.60
74617;DHT22;63123;50.906;4.198;2023-05-15T15:21:11;17.80;66.50
74617;DHT22;63123;50.906;4.198;2023-05-15T15:23:37;17.80;66.60
74617;DHT22;63123;50.906;4.198;2023-05-15T15:26:02;17.80;66.50
74617;DHT22;63123;50.906;4.198;2023-05-15T15:28:28;17.80;67.20
74617;DHT22;63123;50.906;4.198;2023-05-15T15:30:58;17.80;66.50
74617;DHT22;63123;50.906;4.198;2023-05-15T15:33:24;17.80;66.80
74617;DHT22;63123;50.906;4.198;2023-05-15T15:35:49;17.80;66.50
74617;DHT22;63123;50.906;4.198;2023-05-15T15:38:15;17.70;66.50
74617;DHT22;63123;50.906;4.198;2023-05-15T15:40:41;17.80;66.70
74617;DHT22;63123;50.906;4.198;2023-05-15T15:43:06;17.70;66.50
74617;DHT22;63123;50.906;4.198;2023-05-15T15:52:17;17.80;66.40
74617;DHT22;63123;50.906;4.198;2023-05-15T15:54:43;17.80;66.40
74617;DHT22;63123;50.906;4.198;2023-05-15T15:57:18;17.80;66.40
74617;DHT22;63123;50.906;4.198;2023-05-15T15:59:44;17.80;66.50
74617;DHT22;63123;50.906;4.198;2023-05-15T16:02:11;17.80;66.40
74617;DHT22;63123;50.906;4.198;2023-05-15T16:04:37;17.80;66.40
74617;DHT22;63123;50.906;4.198;2023-05-15T16:07:04;17.80;66.50
74617;DHT22;63123;50.906;4.198;2023-05-15T16:09:30;17.80;66.50
74617;DHT22;63123;50.906;4.198;2023-05-15T16:11:56;17.80;66.70